Manoa — KDBG — position and weather

sailwx.info

Track history (hours):
 
Tides and Currents Weather Stations Pressure Air Temp Water Temp Dewpoint Dewpoint Depression Visibility Wind Speed Wind Dir Waves Ship Positions

Manoa

Owner: MATSON NAVIGATION CO, RALEIGH, NC. More information available from US FCC via Universal Licensing System and Coast Guard Vessel Documentation Center.

Last reported at 2015-May-23 00:00 UTC. Time now 2015-May-23 05:48 UTC.
Position N 27°48' W 146°54'.

Type: Cargo ship. MMSI: 366562000.

Wind from 240 at 21 knots

Waves 1.5 meters (5 feet), 3 second period

Barometer 1012.8 mb
Air temperature 22.2 ° C
Visibility: greater than 5.4 NM
Dewpoint 18.0 ° C
Water temperature 23.3 ° C

Date/timePositionNaut miles runAvg speedWind from/ knotsBaromVisibWave heightAir tempDewpointWater temp
2015-May-23 00:00N 27°48' W 146°54'103821.6 240 / 211012.8 5.4 1.522.218.023.3
2015-May-21 00:00N 35°42' W 128°48'23820.4 330 / 191018.410.8 1.018.314.817.2
2015-May-20 12:19N 37°14' W 124°14'2321.0
2015-May-20 11:14N 37°22' W 123°48'1917.1
2015-May-20 10:07N 37°28' W 123°25'916.2
2015-May-20 09:34N 37°31' W 123°14'1717.3
2015-May-20 08:33N 37°39' W 122°54'1613.4
2015-May-20 07:23N 37°46' W 122°37'1012.8
2015-May-20 06:33N 37°50' W 122°24'6 5.6
2015-May-20 05:33N 37°48' W 122°18'0 0.0
2015-May-20 04:31N 37°48' W 122°18'0 0.0
2015-May-20 03:31N 37°48' W 122°18'0 0.0
2015-May-20 02:30N 37°48' W 122°18'0 0.0
2015-May-20 01:33N 37°48' W 122°18'0 0.0
2015-May-20 00:30N 37°48' W 122°18'0 0.0
2015-May-19 23:31N 37°48' W 122°18'0 0.0
2015-May-19 22:34N 37°48' W 122°18'0 0.0
2015-May-19 21:31N 37°48' W 122°18'0 0.0
2015-May-19 20:31N 37°48' W 122°18'0 0.0
2015-May-19 19:31N 37°48' W 122°18'0 0.0
2015-May-19 18:31N 37°48' W 122°18'0 0.0
2015-May-19 17:34N 37°48' W 122°18'0 0.0
2015-May-19 16:33N 37°48' W 122°18'0 0.0
2015-May-19 15:30N 37°48' W 122°18'0 0.0
2015-May-19 14:30N 37°48' W 122°18'0 0.0
2015-May-19 13:30N 37°48' W 122°18'0 0.0
2015-May-19 12:32N 37°48' W 122°18'0 0.0
2015-May-19 11:32N 37°48' W 122°18'0 0.0
2015-May-19 10:32N 37°48' W 122°18'0 0.0
2015-May-19 09:32N 37°48' W 122°18'0 0.0
2015-May-19 08:32N 37°48' W 122°18'0 0.0
2015-May-19 07:32N 37°48' W 122°18'0 0.0
2015-May-19 06:32N 37°48' W 122°18'0 0.0
2015-May-19 05:32N 37°48' W 122°18'0 0.0
2015-May-19 04:32N 37°48' W 122°18'0 0.0
2015-May-19 03:32N 37°48' W 122°18'0 0.0
2015-May-19 02:32N 37°48' W 122°18'0 0.0
2015-May-19 01:32N 37°48' W 122°18'0 0.0
2015-May-19 00:29N 37°48' W 122°18'0 0.0
2015-May-18 23:32N 37°48' W 122°18'0 0.0
2015-May-18 22:29N 37°48' W 122°18'0 0.0
2015-May-18 21:32N 37°48' W 122°18'0 0.0
2015-May-18 20:26N 37°48' W 122°18'0 0.0
2015-May-18 19:32N 37°48' W 122°18'0 0.0
2015-May-18 18:32N 37°48' W 122°18'0 0.0
2015-May-18 17:32N 37°48' W 122°18'0 0.0
2015-May-18 16:32N 37°48' W 122°18'0 0.0
2015-May-18 15:32N 37°48' W 122°18'0 0.0
2015-May-18 14:32N 37°48' W 122°18'1 0.9
2015-May-18 13:33N 37°48' W 122°19'9 9.2
2015-May-18 12:32N 37°48' W 122°31'1212.0
2015-May-18 11:33N 37°47' W 122°46'1515.0
2015-May-18 10:33N 37°54' W 123°02'1818.1
2015-May-18 09:34N 38°06' W 123°20'1818.2
2015-May-18 08:33N 38°15' W 123°40'1716.8
2015-May-18 07:33N 38°23' W 123°58'43521.7
2015-May-17 11:34N 45°34' W 125°16'2323.3
2015-May-17 10:33N 45°58' W 125°17'2323.3
2015-May-17 09:33N 46°21' W 125°19'2323.1
2015-May-17 08:34N 46°44' W 125°20'3223.0
2015-May-17 07:09N 47°16' W 125°22'4622.7
2015-May-17 05:08N 48°02' W 125°20'1322.5
2015-May-17 04:33N 48°14' W 125°13'2120.9
2015-May-17 03:33N 48°31' W 124°54'2423.6
2015-May-17 02:34N 48°24' W 124°20'2322.7
2015-May-17 01:34N 48°17' W 123°48'1717.1
2015-May-17 00:33N 48°10' W 123°24'1313.5
2015-May-16 23:34N 48°13' W 123°04'2018.0
2015-May-16 22:27N 48°03' W 122°38'1719.2
2015-May-16 21:34N 47°47' W 122°27'1312.5
2015-May-16 20:33N 47°35' W 122°21'1 0.7
2015-May-16 19:33N 47°35' W 122°21'0 0.0
2015-May-16 18:32N 47°35' W 122°21'0 0.0
2015-May-16 17:32N 47°35' W 122°21'0 0.0
2015-May-16 16:26N 47°35' W 122°21'0 0.0
2015-May-16 15:17N 47°35' W 122°21'0 0.0
2015-May-16 14:26N 47°35' W 122°21'0 0.0
2015-May-16 13:32N 47°35' W 122°21'0 0.0
2015-May-16 12:32N 47°35' W 122°21'0 0.0
2015-May-16 11:32N 47°35' W 122°21'0 0.0
2015-May-16 10:32N 47°35' W 122°21'0 0.0
2015-May-16 09:32N 47°35' W 122°21'0 0.0
2015-May-16 08:32N 47°35' W 122°21'0 0.0
2015-May-16 07:32N 47°35' W 122°21'0 0.0
2015-May-16 06:32N 47°35' W 122°21'0 0.0
2015-May-16 05:32N 47°35' W 122°21'0 0.0
2015-May-16 04:32N 47°35' W 122°21'0 0.0
2015-May-16 03:32N 47°35' W 122°21'0 0.0
2015-May-16 02:32N 47°35' W 122°21'4 3.7
2015-May-16 01:33N 47°37' W 122°25'1717.3
2015-May-16 00:34N 47°54' W 122°29'2121.4
2015-May-15 23:33N 48°11' W 122°49'2019.7
2015-May-15 22:33N 48°11' W 123°18'1515.0
2015-May-15 21:34N 48°13' W 123°40'2423.6
2015-May-15 20:34N 48°20' W 124°15'2424.2
2015-May-15 19:34N 48°29' W 124°48'2423.5
2015-May-15 18:34N 48°22' W 125°22'2624.1
2015-May-15 17:29N 48°07' W 125°54'97523.5
2015-May-14 00:00N 37°18' W 142°24'   320 / 191022.910.8 1.015.6 9.517.2
Track history (hours):
 
Tides and Currents Weather Stations Pressure Air Temp Water Temp Dewpoint Dewpoint Depression Visibility Wind Speed Wind Dir Waves Ship Positions

Manoa

Owner: MATSON NAVIGATION CO, RALEIGH, NC. More information available from US FCC via Universal Licensing System and Coast Guard Vessel Documentation Center.

Last reported at 2015-May-23 00:00 UTC. Time now 2015-May-23 05:48 UTC.
Position N 27°48' W 146°54'.

Type: Cargo ship. MMSI: 366562000.

Wind from 240 at 21 knots

Waves 1.5 meters (5 feet), 3 second period

Barometer 1012.8 mb
Air temperature 22.2 ° C
Visibility: greater than 5.4 NM
Dewpoint 18.0 ° C
Water temperature 23.3 ° C

Date/timePositionNaut miles runAvg speedWind from/ knotsBaromVisibWave heightAir tempDewpointWater temp
2015-May-23 00:00N 27°48' W 146°54'103821.6 240 / 211012.8 5.4 1.522.218.023.3
2015-May-21 00:00N 35°42' W 128°48'23820.4 330 / 191018.410.8 1.018.314.817.2
2015-May-20 12:19N 37°14' W 124°14'2321.0
2015-May-20 11:14N 37°22' W 123°48'1917.1
2015-May-20 10:07N 37°28' W 123°25'916.2
2015-May-20 09:34N 37°31' W 123°14'1717.3
2015-May-20 08:33N 37°39' W 122°54'1613.4
2015-May-20 07:23N 37°46' W 122°37'1012.8
2015-May-20 06:33N 37°50' W 122°24'6 5.6
2015-May-20 05:33N 37°48' W 122°18'0 0.0
2015-May-20 04:31N 37°48' W 122°18'0 0.0
2015-May-20 03:31N 37°48' W 122°18'0 0.0
2015-May-20 02:30N 37°48' W 122°18'0 0.0
2015-May-20 01:33N 37°48' W 122°18'0 0.0
2015-May-20 00:30N 37°48' W 122°18'0 0.0
2015-May-19 23:31N 37°48' W 122°18'0 0.0
2015-May-19 22:34N 37°48' W 122°18'0 0.0
2015-May-19 21:31N 37°48' W 122°18'0 0.0
2015-May-19 20:31N 37°48' W 122°18'0 0.0
2015-May-19 19:31N 37°48' W 122°18'0 0.0
2015-May-19 18:31N 37°48' W 122°18'0 0.0
2015-May-19 17:34N 37°48' W 122°18'0 0.0
2015-May-19 16:33N 37°48' W 122°18'0 0.0
2015-May-19 15:30N 37°48' W 122°18'0 0.0
2015-May-19 14:30N 37°48' W 122°18'0 0.0
2015-May-19 13:30N 37°48' W 122°18'0 0.0
2015-May-19 12:32N 37°48' W 122°18'0 0.0
2015-May-19 11:32N 37°48' W 122°18'0 0.0
2015-May-19 10:32N 37°48' W 122°18'0 0.0
2015-May-19 09:32N 37°48' W 122°18'0 0.0
2015-May-19 08:32N 37°48' W 122°18'0 0.0
2015-May-19 07:32N 37°48' W 122°18'0 0.0
2015-May-19 06:32N 37°48' W 122°18'0 0.0
2015-May-19 05:32N 37°48' W 122°18'0 0.0
2015-May-19 04:32N 37°48' W 122°18'0 0.0
2015-May-19 03:32N 37°48' W 122°18'0 0.0
2015-May-19 02:32N 37°48' W 122°18'0 0.0
2015-May-19 01:32N 37°48' W 122°18'0 0.0
2015-May-19 00:29N 37°48' W 122°18'0 0.0
2015-May-18 23:32N 37°48' W 122°18'0 0.0
2015-May-18 22:29N 37°48' W 122°18'0 0.0
2015-May-18 21:32N 37°48' W 122°18'0 0.0
2015-May-18 20:26N 37°48' W 122°18'0 0.0
2015-May-18 19:32N 37°48' W 122°18'0 0.0
2015-May-18 18:32N 37°48' W 122°18'0 0.0
2015-May-18 17:32N 37°48' W 122°18'0 0.0
2015-May-18 16:32N 37°48' W 122°18'0 0.0
2015-May-18 15:32N 37°48' W 122°18'0 0.0
2015-May-18 14:32N 37°48' W 122°18'1 0.9
2015-May-18 13:33N 37°48' W 122°19'9 9.2
2015-May-18 12:32N 37°48' W 122°31'1212.0
2015-May-18 11:33N 37°47' W 122°46'1515.0
2015-May-18 10:33N 37°54' W 123°02'1818.1
2015-May-18 09:34N 38°06' W 123°20'1818.2
2015-May-18 08:33N 38°15' W 123°40'1716.8
2015-May-18 07:33N 38°23' W 123°58'43521.7
2015-May-17 11:34N 45°34' W 125°16'2323.3
2015-May-17 10:33N 45°58' W 125°17'2323.3
2015-May-17 09:33N 46°21' W 125°19'2323.1
2015-May-17 08:34N 46°44' W 125°20'3223.0
2015-May-17 07:09N 47°16' W 125°22'4622.7
2015-May-17 05:08N 48°02' W 125°20'1322.5
2015-May-17 04:33N 48°14' W 125°13'2120.9
2015-May-17 03:33N 48°31' W 124°54'2423.6
2015-May-17 02:34N 48°24' W 124°20'2322.7
2015-May-17 01:34N 48°17' W 123°48'1717.1
2015-May-17 00:33N 48°10' W 123°24'1313.5
2015-May-16 23:34N 48°13' W 123°04'2018.0
2015-May-16 22:27N 48°03' W 122°38'1719.2
2015-May-16 21:34N 47°47' W 122°27'1312.5
2015-May-16 20:33N 47°35' W 122°21'1 0.7
2015-May-16 19:33N 47°35' W 122°21'0 0.0
2015-May-16 18:32N 47°35' W 122°21'0 0.0
2015-May-16 17:32N 47°35' W 122°21'0 0.0
2015-May-16 16:26N 47°35' W 122°21'0 0.0
2015-May-16 15:17N 47°35' W 122°21'0 0.0
2015-May-16 14:26N 47°35' W 122°21'0 0.0
2015-May-16 13:32N 47°35' W 122°21'0 0.0
2015-May-16 12:32N 47°35' W 122°21'0 0.0
2015-May-16 11:32N 47°35' W 122°21'0 0.0
2015-May-16 10:32N 47°35' W 122°21'0 0.0
2015-May-16 09:32N 47°35' W 122°21'0 0.0
2015-May-16 08:32N 47°35' W 122°21'0 0.0
2015-May-16 07:32N 47°35' W 122°21'0 0.0
2015-May-16 06:32N 47°35' W 122°21'0 0.0
2015-May-16 05:32N 47°35' W 122°21'0 0.0
2015-May-16 04:32N 47°35' W 122°21'0 0.0
2015-May-16 03:32N 47°35' W 122°21'0 0.0
2015-May-16 02:32N 47°35' W 122°21'4 3.7
2015-May-16 01:33N 47°37' W 122°25'1717.3
2015-May-16 00:34N 47°54' W 122°29'2121.4
2015-May-15 23:33N 48°11' W 122°49'2019.7
2015-May-15 22:33N 48°11' W 123°18'1515.0
2015-May-15 21:34N 48°13' W 123°40'2423.6
2015-May-15 20:34N 48°20' W 124°15'2424.2
2015-May-15 19:34N 48°29' W 124°48'2423.5
2015-May-15 18:34N 48°22' W 125°22'2624.1
2015-May-15 17:29N 48°07' W 125°54'97523.5
2015-May-14 00:00N 37°18' W 142°24'   320 / 191022.910.8 1.015.6 9.517.2

Dump ship's entire track history